Time;durP1;ratioP1;P1;durP2;ratioP2;P2;SDS_P1;SDS_P2;PMS_P1;PMS_P2;Temp;Humidity;BMP_temperature;BMP_pressure;BME280_temperature;BME280_humidity;BME280_pressure;Samples;Min_cycle;Max_cycle;Signal;HPM_P1;HPM_P2
2022/11/13 00:01:17;;;;;;;289.30;19.35;;;5.30;99.90;;;4.06;100.00;98433.06;4968736;28;20050;-74
2022/11/13 00:03:45;;;;;;;1203.28;62.53;;;5.20;99.90;;;4.05;100.00;98433.91;4964545;28;20050;-73
2022/11/13 00:06:14;;;;;;;453.60;24.55;;;5.20;99.90;;;4.10;100.00;98429.59;4957893;28;20062;-73
2022/11/13 00:08:41;;;;;;;776.70;42.88;;;5.20;99.90;;;4.03;100.00;98427.91;4962236;28;20057;-73
2022/11/13 00:11:13;;;;;;;615.15;32.60;;;5.10;99.90;;;4.12;100.00;98417.63;4964340;28;20050;-72
2022/11/13 00:13:41;;;;;;;310.30;18.08;;;5.10;99.90;;;4.15;100.00;98420.19;4963075;28;20051;-73
2022/11/13 00:16:16;;;;;;;1087.22;64.15;;;5.20;99.90;;;3.98;100.00;98416.81;4960743;28;20089;-73
2022/11/13 00:18:44;;;;;;;647.55;34.05;;;5.10;99.90;;;4.06;100.00;98414.22;4961789;28;20114;-72
2022/11/13 00:21:18;;;;;;;566.25;33.22;;;5.10;99.90;;;3.91;100.00;98407.41;4947239;28;20050;-73
2022/11/13 00:23:45;;;;;;;664.25;30.38;;;5.00;99.90;;;3.91;100.00;98404.84;4978338;28;20693;-73
2022/11/13 00:26:16;;;;;;;367.60;20.55;;;5.00;99.90;;;3.94;100.00;98415.09;4966947;28;20050;-73
2022/11/13 00:28:45;;;;;;;437.08;22.20;;;5.00;99.90;;;3.89;100.00;98409.97;4947752;28;20058;-73
2022/11/13 00:31:14;;;;;;;701.10;38.97;;;5.10;99.90;;;3.82;100.00;98420.28;4964733;28;20061;-73
2022/11/13 00:33:41;;;;;;;336.77;24.10;;;4.90;99.90;;;3.82;100.00;98422.84;4963913;28;20051;-74
2022/11/13 00:36:28;;;;;;;663.35;34.95;;;4.90;99.90;;;3.74;100.00;98407.44;4965192;28;20097;-74
2022/11/13 00:38:55;;;;;;;293.48;18.75;;;4.80;99.90;;;3.81;100.00;98410.84;4962157;28;20047;-73
2022/11/13 00:41:23;;;;;;;418.23;24.15;;;4.90;99.90;;;3.84;100.00;98406.56;4969031;28;20055;-72
2022/11/13 00:43:50;;;;;;;552.30;29.65;;;4.90;99.90;;;3.77;100.00;98395.47;4966392;28;20058;-73
2022/11/13 00:46:18;;;;;;;619.03;31.33;;;4.90;99.90;;;3.73;100.00;98398.03;4965956;28;20065;-72
2022/11/13 00:48:45;;;;;;;425.77;24.33;;;4.80;99.90;;;3.68;100.00;98392.91;4966488;28;20059;-73
2022/11/13 00:51:12;;;;;;;486.35;24.80;;;4.80;99.90;;;3.75;100.00;98393.75;4966361;28;20063;-73
2022/11/13 00:53:39;;;;;;;549.28;30.27;;;4.80;99.90;;;3.75;100.00;98393.75;4965312;28;20092;-71
2022/11/13 00:56:06;;;;;;;490.08;22.13;;;4.80;99.90;;;3.69;100.00;98389.47;4966624;28;20078;-72
2022/11/13 00:58:32;;;;;;;327.90;19.35;;;4.80;99.90;;;3.78;100.00;98394.59;4964844;28;20042;-72
2022/11/13 01:01:07;;;;;;;407.40;22.02;;;4.80;99.90;;;3.81;100.00;98388.63;4962435;28;20065;-72
2022/11/13 01:03:34;;;;;;;393.83;20.58;;;4.90;99.90;;;3.82;100.00;98397.16;4962777;28;20140;-72
2022/11/13 01:06:20;;;;;;;146.60;11.13;;;4.90;99.90;;;3.86;100.00;98392.03;4965628;28;20054;-72
2022/11/13 01:08:48;;;;;;;164.80;12.52;;;5.00;99.90;;;3.83;100.00;98394.59;4964799;28;20182;-72
2022/11/13 01:11:19;;;;;;;799.78;40.10;;;5.00;99.90;;;3.72;100.00;98406.63;4966303;28;20440;-71
2022/11/13 01:13:48;;;;;;;521.85;27.75;;;4.90;99.90;;;3.67;100.00;98406.63;4973871;28;20043;-74
2022/11/13 01:16:18;;;;;;;679.88;30.83;;;4.80;99.90;;;3.64;100.00;98400.63;4965296;28;20070;-73
2022/11/13 01:18:45;;;;;;;493.65;27.02;;;4.70;99.90;;;3.71;100.00;98398.03;4963421;28;20062;-74
2022/11/13 01:21:21;;;;;;;216.25;16.13;;;4.70;99.90;;;3.73;100.00;98392.91;4966758;28;20055;-71
2022/11/13 01:23:48;;;;;;;598.40;33.28;;;4.80;99.90;;;3.65;100.00;98389.47;4966906;28;20051;-72
2022/11/13 01:26:22;;;;;;;341.15;23.20;;;4.70;99.90;;;3.65;100.00;98390.38;4969264;28;20127;-72
2022/11/13 01:28:49;;;;;;;191.02;13.75;;;4.70;99.90;;;3.71;100.00;98394.63;4964712;28;20052;-72
2022/11/13 01:31:24;;;;;;;568.67;29.98;;;4.80;99.90;;;3.62;100.00;98392.06;4966874;28;20043;-72
2022/11/13 01:33:51;;;;;;;417.10;24.10;;;4.80;99.90;;;3.72;100.00;98383.50;4963945;28;20062;-72
2022/11/13 01:36:26;;;;;;;641.35;38.22;;;4.80;99.90;;;3.48;100.00;98381.81;4967948;28;20105;-72
2022/11/13 01:38:53;;;;;;;446.20;24.73;;;4.60;99.90;;;3.43;100.00;98389.53;4965602;28;20043;-72
2022/11/13 01:41:28;;;;;;;770.08;40.95;;;4.50;99.90;;;3.35;100.00;98386.97;4968110;28;20054;-72
2022/11/13 01:44:00;;;;;;;558.15;28.33;;;4.50;99.90;;;3.40;100.00;98388.66;4981325;28;20142;-72
2022/11/13 01:46:38;;;;;;;222.30;14.13;;;4.40;99.90;;;3.40;100.00;98389.53;4967121;28;20051;-72
2022/11/13 01:49:11;;;;;;;222.82;15.13;;;4.50;99.90;;;3.38;100.00;98388.69;4967373;28;20051;-72
2022/11/13 01:51:51;;;;;;;270.40;17.02;;;4.50;99.90;;;3.28;100.00;98385.25;4967225;28;20050;-72
2022/11/13 01:54:25;;;;;;;157.05;11.55;;;4.50;99.90;;;3.41;100.00;98378.41;4978532;28;20069;-71
2022/11/13 01:56:54;;;;;;;445.95;21.95;;;4.50;99.90;;;3.39;100.00;98371.56;4966597;28;20065;-71
2022/11/13 01:59:30;;;;;;;297.58;17.85;;;4.50;99.90;;;3.32;100.00;98373.28;4963803;28;20485;-72
2022/11/13 02:01:57;;;;;;;253.82;15.43;;;4.50;99.90;;;3.31;100.00;98367.31;4979408;28;20064;-72
2022/11/13 02:04:25;;;;;;;284.63;15.70;;;4.50;99.90;;;3.34;100.00;98357.03;4978902;28;20042;-73
2022/11/13 02:07:03;;;;;;;679.33;37.25;;;4.40;99.90;;;3.23;100.00;98347.63;4964775;28;20446;-73
2022/11/13 02:09:46;;;;;;;326.30;17.65;;;4.40;99.90;;;3.21;100.00;98347.63;4977811;28;20074;-72
2022/11/13 02:12:19;;;;;;;437.20;25.42;;;4.40;99.90;;;3.17;100.00;98352.75;4979966;28;20066;-73
2022/11/13 02:14:51;;;;;;;281.02;17.90;;;4.50;99.90;;;3.33;100.00;98357.03;4966939;28;20062;-73
2022/11/13 02:17:32;;;;;;;439.10;20.42;;;4.40;99.90;;;3.35;100.00;98356.19;4962934;28;20119;-72
2022/11/13 02:20:03;;;;;;;324.10;18.33;;;4.40;99.90;;;3.29;100.00;98353.63;4966159;28;20408;-73
2022/11/13 02:23:13;;;;;;;216.02;14.45;;;4.40;99.90;;;3.29;100.00;98352.78;4981729;28;20047;-73
2022/11/13 02:25:42;;;;;;;616.70;31.67;;;4.40;99.90;;;3.29;100.00;98347.63;4963669;28;20055;-73
2022/11/13 02:28:09;;;;;;;500.80;23.35;;;4.40;99.90;;;3.19;100.00;98348.50;4964702;28;20544;-74
2022/11/13 02:30:36;;;;;;;441.33;25.13;;;4.30;99.90;;;3.11;100.00;98335.69;4964666;28;20062;-72
2022/11/13 02:33:21;;;;;;;114.45;10.25;;;4.20;99.90;;;3.22;100.00;98331.41;4965737;28;20187;-72
2022/11/13 02:35:48;;;;;;;458.83;21.02;;;4.30;99.90;;;3.26;100.00;98332.22;4965809;28;20045;-73
2022/11/13 02:38:15;;;;;;;438.48;21.65;;;4.30;99.90;;;3.21;100.00;98326.25;4965594;28;20115;-72
2022/11/13 02:40:42;;;;;;;476.65;29.70;;;4.20;99.90;;;3.08;100.00;98327.97;4965838;28;20047;-73
2022/11/13 02:43:09;;;;;;;263.85;18.30;;;4.20;99.90;;;3.03;100.00;98330.53;4966278;28;20609;-73
2022/11/13 02:45:37;;;;;;;117.07;10.75;;;4.20;99.90;;;2.96;100.00;98331.41;4965620;28;20704;-73
2022/11/13 02:48:06;;;;;;;219.82;15.90;;;4.20;99.90;;;2.98;100.00;98324.56;4965301;28;20055;-73
2022/11/13 02:50:35;;;;;;;326.45;23.35;;;4.10;99.90;;;2.88;100.00;98326.28;4973381;28;20517;-72
2022/11/13 02:53:04;;;;;;;203.45;17.15;;;3.90;99.90;;;2.84;100.00;98316.03;4965459;28;20141;-73
2022/11/13 02:55:31;;;;;;;342.67;22.65;;;3.90;99.90;;;2.75;100.00;98324.56;4980163;28;20101;-73
2022/11/13 02:57:58;;;;;;;213.30;16.27;;;3.90;99.90;;;2.80;100.00;98325.41;4966088;28;20055;-73
2022/11/13 03:00:26;;;;;;;250.15;18.77;;;3.90;99.90;;;2.81;100.00;98318.59;4966758;28;20057;-73
2022/11/13 03:02:54;;;;;;;159.85;15.60;;;3.90;99.90;;;2.88;100.00;98321.16;4965752;28;20450;-73
2022/11/13 03:05:22;;;;;;;443.80;24.08;;;4.00;99.90;;;2.98;100.00;98319.44;4964707;28;20046;-72
2022/11/13 03:07:49;;;;;;;584.03;29.63;;;4.00;99.90;;;3.01;100.00;98314.31;4966935;28;20058;-73
2022/11/13 03:10:16;;;;;;;263.05;16.05;;;4.10;99.90;;;3.04;100.00;98311.75;4964893;28;20051;-73
2022/11/13 03:12:43;;;;;;;618.28;31.73;;;4.10;99.90;;;3.04;100.00;98310.91;4966055;28;20058;-73
2022/11/13 03:15:10;;;;;;;403.05;22.15;;;4.10;99.90;;;3.10;100.00;98316.88;4967324;28;20050;-73
2022/11/13 03:17:37;;;;;;;300.02;18.50;;;4.20;99.90;;;3.10;100.00;98309.19;4970005;28;20069;-73
2022/11/13 03:20:05;;;;;;;544.28;25.25;;;4.20;99.90;;;3.01;100.00;98305.75;4969531;28;20073;-73
2022/11/13 03:22:31;;;;;;;434.20;26.17;;;4.20;99.90;;;2.95;100.00;98303.22;4970683;28;20050;-73
2022/11/13 03:24:58;;;;;;;348.80;20.30;;;4.00;99.90;;;2.93;100.00;98295.50;4970053;28;20054;-73
2022/11/13 03:27:25;;;;;;;188.10;17.60;;;4.00;99.90;;;2.92;100.00;98281.84;4967570;28;20055;-72
2022/11/13 03:29:52;;;;;;;563.92;29.63;;;4.00;99.90;;;2.80;100.00;98288.66;4969056;28;20050;-73
2022/11/13 03:32:19;;;;;;;96.18;10.07;;;3.90;99.90;;;2.95;100.00;98287.81;4968371;28;20520;-73
2022/11/13 03:34:46;;;;;;;188.32;14.07;;;4.00;99.90;;;2.83;100.00;98284.41;4969895;28;20080;-72
2022/11/13 03:37:13;;;;;;;304.27;18.25;;;4.00;99.90;;;2.84;100.00;98288.66;4968651;28;20527;-73
2022/11/13 03:39:40;;;;;;;247.50;16.95;;;4.00;99.90;;;2.85;100.00;98286.94;4970020;28;20057;-73
2022/11/13 03:42:07;;;;;;;218.98;16.80;;;3.90;99.90;;;2.60;100.00;98292.09;4970732;28;20071;-73
2022/11/13 03:44:33;;;;;;;241.55;15.75;;;3.90;99.90;;;2.70;100.00;98287.81;4969219;28;20066;-73
2022/11/13 03:47:00;;;;;;;192.07;14.15;;;3.90;99.90;;;2.59;100.00;98289.53;4969091;28;20047;-73
2022/11/13 03:49:27;;;;;;;127.50;11.95;;;3.90;99.90;;;2.76;100.00;98280.13;4966973;28;20058;-73
2022/11/13 03:51:54;;;;;;;151.73;13.02;;;3.90;99.90;;;2.68;100.00;98280.13;4969788;28;20057;-72
2022/11/13 03:54:21;;;;;;;101.25;10.35;;;3.90;99.90;;;2.70;100.00;98278.41;4969449;28;20058;-73
2022/11/13 03:56:48;;;;;;;140.23;10.25;;;3.80;99.90;;;2.54;100.00;98276.72;4968478;28;20062;-73
2022/11/13 03:59:14;;;;;;;62.13;8.77;;;3.80;99.90;;;2.66;100.00;98281.81;4969808;28;20715;-73
2022/11/13 04:01:41;;;;;;;69.05;8.70;;;3.80;99.90;;;2.59;100.00;98263.91;4968928;28;20528;-73
2022/11/13 04:04:08;;;;;;;88.85;8.60;;;3.80;99.90;;;2.54;100.00;98263.91;4968184;28;20054;-73
2022/11/13 04:06:35;;;;;;;78.30;8.57;;;3.80;99.90;;;2.54;100.00;98260.47;4969257;28;20059;-71
2022/11/13 04:09:02;;;;;;;152.43;11.73;;;3.70;99.90;;;2.50;100.00;98260.47;4967596;28;20054;-72
2022/11/13 04:11:29;;;;;;;139.85;10.93;;;3.70;99.90;;;2.43;100.00;98260.47;4968354;28;20070;-72
2022/11/13 04:13:56;;;;;;;54.30;7.03;;;3.60;99.90;;;2.49;100.00;98260.47;4969772;28;20063;-72
2022/11/13 04:16:23;;;;;;;58.22;9.13;;;3.60;99.90;;;2.52;100.00;98260.47;4968640;28;20062;-71
2022/11/13 04:18:50;;;;;;;52.55;7.13;;;3.70;99.90;;;2.52;100.00;98260.47;4967357;28;20061;-72
2022/11/13 04:21:17;;;;;;;82.30;7.53;;;3.60;99.90;;;2.44;100.00;98249.34;4969182;28;20057;-72
2022/11/13 04:23:43;;;;;;;110.22;10.07;;;3.60;99.90;;;2.42;100.00;98251.09;4983498;28;20069;-72
2022/11/13 04:26:10;;;;;;;95.95;8.63;;;3.60;99.90;;;2.41;100.00;98250.22;4967880;28;20051;-72
2022/11/13 04:28:37;;;;;;;25.02;6.80;;;3.50;99.90;;;2.33;100.00;98240.81;4965137;28;20081;-71
2022/11/13 04:31:04;;;;;;;44.80;7.45;;;3.50;99.90;;;2.36;100.00;98239.09;4968870;28;20571;-72
2022/11/13 04:33:31;;;;;;;88.10;9.02;;;3.50;99.90;;;2.28;100.00;98238.22;4968469;28;20634;-72
2022/11/13 04:35:58;;;;;;;82.13;9.32;;;3.50;99.90;;;2.34;100.00;98234.84;4966212;28;20064;-72
2022/11/13 04:38:25;;;;;;;138.80;9.90;;;3.40;99.90;;;2.28;100.00;98236.56;4968639;28;20345;-72
2022/11/13 04:42:47;;;;;;;63.88;6.57;;;3.40;99.90;;;2.20;100.00;98235.69;4968854;28;20058;-72
2022/11/13 04:43:39;;;;;;;287.13;15.52;;;3.30;99.90;;;2.27;100.00;98231.41;4968544;28;20480;-72
2022/11/13 04:46:06;;;;;;;504.08;26.15;;;3.30;99.90;;;2.17;100.00;98230.56;4968543;28;20077;-71
2022/11/13 04:48:33;;;;;;;472.30;26.55;;;3.20;99.90;;;2.20;100.00;98229.72;4966542;28;20054;-72
2022/11/13 04:51:00;;;;;;;120.40;8.70;;;3.30;99.90;;;2.24;100.00;98226.31;4969028;28;20057;-72
2022/11/13 04:53:27;;;;;;;162.60;10.80;;;3.30;99.90;;;2.24;100.00;98229.72;4968557;28;20074;-71
2022/11/13 04:55:54;;;;;;;110.50;9.95;;;3.40;99.90;;;2.22;100.00;98226.28;4968356;28;20070;-71
2022/11/13 04:58:21;;;;;;;97.38;9.40;;;3.50;99.90;;;2.34;100.00;98220.31;4968104;28;20051;-72
2022/11/13 05:00:48;;;;;;;280.75;15.63;;;3.50;99.90;;;2.41;100.00;98226.31;4967409;28;20046;-72
2022/11/13 05:03:14;;;;;;;109.55;9.57;;;3.50;99.90;;;2.37;100.00;98224.59;4968033;28;20066;-73
2022/11/13 05:05:41;;;;;;;183.05;12.15;;;3.50;99.90;;;2.40;100.00;98228.00;4967738;28;20134;-72
2022/11/13 05:08:09;;;;;;;108.93;9.15;;;3.50;99.90;;;2.27;100.00;98228.84;4968211;28;20047;-72
2022/11/13 05:10:36;;;;;;;90.50;9.20;;;3.50;99.90;;;2.40;100.00;98229.72;4968486;28;20509;-72
2022/11/13 05:13:03;;;;;;;431.55;22.60;;;3.50;99.90;;;2.40;100.00;98219.47;4968191;28;20091;-73
2022/11/13 05:15:30;;;;;;;66.28;8.88;;;3.50;99.90;;;2.46;100.00;98220.34;4968129;28;20530;-72
2022/11/13 05:17:57;;;;;;;132.93;10.02;;;3.60;99.90;;;2.39;100.00;98218.59;4967324;28;20055;-72
2022/11/13 05:20:24;;;;;;;117.65;9.18;;;3.60;99.90;;;2.39;100.00;98212.63;4982114;28;20062;-73
2022/11/13 05:22:51;;;;;;;158.82;10.23;;;3.60;99.90;;;2.28;100.00;98213.50;4969793;28;20465;-72
2022/11/13 05:25:17;;;;;;;58.20;6.03;;;3.50;99.90;;;2.38;100.00;98209.22;4967768;28;20054;-72
2022/11/13 05:27:44;;;;;;;106.63;7.55;;;3.50;99.90;;;2.29;100.00;98204.94;4966033;28;20526;-72
2022/11/13 05:30:11;;;;;;;79.63;7.03;;;3.50;99.90;;;2.18;100.00;98205.78;4968092;28;20055;-72
2022/11/13 05:32:38;;;;;;;177.23;11.68;;;3.50;99.90;;;2.28;100.00;98202.38;4965458;28;20058;-72
2022/11/13 05:35:05;;;;;;;211.63;12.00;;;3.50;99.90;;;2.24;100.00;98200.69;4967939;28;20401;-72
2022/11/13 05:37:32;;;;;;;121.43;8.57;;;3.50;99.90;;;2.23;100.00;98191.28;4966384;28;20070;-72
2022/11/13 05:39:59;;;;;;;146.82;10.38;;;3.40;99.90;;;2.27;100.00;98198.13;4968382;28;20058;-72
2022/11/13 05:42:26;;;;;;;322.38;17.05;;;3.40;99.90;;;2.22;100.00;98187.03;4968164;28;20062;-72
2022/11/13 05:44:52;;;;;;;165.48;12.85;;;3.40;99.90;;;2.11;100.00;98194.69;4967004;28;20683;-73
2022/11/13 05:47:19;;;;;;;224.07;14.88;;;3.40;99.90;;;2.20;100.00;98193.84;4967378;28;20087;-72
2022/11/13 05:49:46;;;;;;;158.68;10.68;;;3.40;99.90;;;2.29;100.00;98189.56;4967628;28;20154;-73
2022/11/13 05:52:13;;;;;;;128.85;8.93;;;3.40;99.90;;;2.21;100.00;98198.97;4967734;28;20141;-71
2022/11/13 05:54:40;;;;;;;165.88;10.02;;;3.30;99.90;;;2.15;100.00;98191.28;4965797;28;20054;-72
2022/11/13 05:57:06;;;;;;;128.07;10.95;;;3.30;99.90;;;2.12;100.00;98181.03;4967287;28;20058;-73
2022/11/13 05:59:33;;;;;;;138.75;9.73;;;3.20;99.90;;;2.10;100.00;98177.63;4968017;28;20063;-72
2022/11/13 06:02:00;;;;;;;92.85;8.57;;;3.20;99.90;;;2.06;100.00;98175.91;4967492;28;20051;-74
2022/11/13 06:04:27;;;;;;;52.40;6.50;;;3.20;99.90;;;2.10;100.00;98180.19;4967366;28;20124;-71
2022/11/13 06:06:54;;;;;;;47.13;5.97;;;3.20;99.90;;;2.15;100.00;98182.75;4975050;28;20058;-71
2022/11/13 06:09:21;;;;;;;53.08;6.40;;;3.20;99.90;;;2.08;100.00;98185.31;4978141;28;20055;-72
2022/11/13 06:11:48;;;;;;;34.70;6.55;;;3.20;99.90;;;2.10;100.00;98185.31;4978963;28;20069;-72
2022/11/13 06:14:15;;;;;;;39.05;5.78;;;3.20;99.90;;;2.20;100.00;98183.59;4978796;28;20062;-72
2022/11/13 06:16:41;;;;;;;83.45;7.78;;;3.20;99.90;;;2.15;100.00;98178.47;4974705;28;20051;-71
2022/11/13 06:19:09;;;;;;;243.80;13.15;;;3.20;99.90;;;2.06;100.00;98171.63;4967096;28;20108;-72
2022/11/13 06:21:39;;;;;;;44.40;5.47;;;3.20;99.90;;;2.15;100.00;98170.78;4967643;28;20133;-72
2022/11/13 06:24:08;;;;;;;54.88;7.40;;;3.30;99.90;;;2.27;100.00;98167.38;4966494;28;20047;-70
2022/11/13 06:26:36;;;;;;;68.90;6.78;;;3.30;99.90;;;2.20;100.00;98163.97;4964812;28;20556;-71
2022/11/13 06:29:05;;;;;;;123.32;9.75;;;3.30;99.90;;;2.16;100.00;98164.81;4966067;28;20074;-72
2022/11/13 06:31:35;;;;;;;84.78;7.43;;;3.40;99.90;;;2.20;100.00;98160.56;4964269;28;20066;-71
2022/11/13 06:34:04;;;;;;;72.15;7.93;;;3.40;99.90;;;2.27;100.00;98157.13;4966489;28;20521;-69
2022/11/13 06:36:35;;;;;;;121.63;17.30;;;3.40;99.90;;;2.29;100.00;98158.00;4967108;28;20077;-73
2022/11/13 06:39:08;;;;;;;134.45;10.68;;;3.50;99.90;;;2.29;100.00;98153.72;4966941;28;20106;-74
2022/11/13 06:41:37;;;;;;;90.37;9.17;;;3.50;99.90;;;2.32;100.00;98155.41;4967305;28;20059;-73
2022/11/13 06:44:04;;;;;;;194.45;11.95;;;3.50;99.90;;;2.31;100.00;98148.59;4965682;28;20380;-74
2022/11/13 06:46:31;;;;;;;220.45;14.40;;;3.50;99.90;;;2.41;100.00;98152.84;4964731;28;20047;-71
2022/11/13 06:48:58;;;;;;;201.07;15.23;;;3.50;99.90;;;2.40;100.00;98142.63;4966895;28;20361;-73
2022/11/13 06:51:28;;;;;;;60.42;7.55;;;3.50;99.90;;;2.57;100.00;98143.44;4970953;28;20378;-73
2022/11/13 06:53:57;;;;;;;104.72;10.95;;;3.60;99.90;;;2.48;100.00;98146.84;4969278;28;20053;-73
2022/11/13 06:56:24;;;;;;;46.20;7.88;;;3.60;99.90;;;2.58;100.00;98145.16;4970517;28;20072;-73
2022/11/13 06:58:54;;;;;;;139.00;10.50;;;3.70;99.90;;;2.40;100.00;98147.75;4985018;28;20050;-72
2022/11/13 07:01:24;;;;;;;112.07;10.48;;;3.70;99.90;;;2.57;100.00;98134.91;4969547;28;20105;-73
2022/11/13 07:03:51;;;;;;;66.15;9.77;;;3.80;99.90;;;2.68;100.00;98133.16;4970409;28;20083;-72
2022/11/13 07:06:21;;;;;;;108.45;12.27;;;3.80;99.90;;;2.58;100.00;98145.16;4968971;28;20532;-72
2022/11/13 07:08:49;;;;;;;69.57;10.65;;;3.80;99.90;;;2.58;100.00;98136.59;4967804;28;20042;-71
2022/11/13 07:11:19;;;;;;;79.80;10.43;;;3.90;99.90;;;2.73;100.00;98128.88;4969672;28;20054;-73
2022/11/13 07:13:46;;;;;;;109.32;10.00;;;3.90;99.90;;;2.68;100.00;98131.44;4969996;28;20092;-73
2022/11/13 07:16:15;;;;;;;127.95;17.83;;;3.90;99.90;;;2.73;100.00;98127.16;4969341;28;20126;-73
2022/11/13 07:18:50;;;;;;;181.05;14.30;;;4.00;99.90;;;2.78;100.00;98129.72;4969591;28;20559;-73
2022/11/13 07:21:18;;;;;;;66.05;9.23;;;4.00;99.90;;;2.85;100.00;98123.75;4969690;28;20046;-73
2022/11/13 07:23:48;;;;;;;83.38;10.57;;;4.00;99.90;;;2.93;100.00;98128.81;4969000;28;20058;-72
2022/11/13 07:26:15;;;;;;;33.28;7.63;;;4.10;99.90;;;3.02;100.00;98126.22;4967630;28;20516;-73
2022/11/13 07:28:42;;;;;;;55.28;9.05;;;4.20;99.90;;;3.09;100.00;98120.22;4969820;28;20042;-73
2022/11/13 07:31:11;;;;;;;156.93;14.10;;;4.20;99.90;;;2.92;100.00;98111.75;4968521;28;20067;-72
2022/11/13 07:33:38;;;;;;;117.30;12.25;;;4.30;99.90;;;2.92;100.00;98116.88;4968017;28;20072;-72
2022/11/13 07:36:07;;;;;;;138.65;13.68;;;4.30;99.90;;;3.11;100.00;98107.41;4969203;28;20046;-73
2022/11/13 07:38:34;;;;;;;191.82;15.32;;;4.30;99.90;;;3.25;100.00;98110.75;4970149;28;20046;-72
2022/11/13 07:41:02;;;;;;;126.30;12.48;;;4.40;99.90;;;2.94;100.00;98104.88;4985199;28;20046;-73
2022/11/13 07:43:29;;;;;;;140.43;13.00;;;4.50;99.90;;;2.97;100.00;98107.44;4968260;28;20056;-73
2022/11/13 07:45:58;;;;;;;118.75;10.98;;;4.40;99.90;;;3.00;100.00;98109.16;4969874;28;20050;-73
2022/11/13 07:48:26;;;;;;;85.43;11.02;;;4.40;99.90;;;3.35;100.00;98103.84;4967067;28;20055;-73
2022/11/13 07:50:54;;;;;;;189.13;15.05;;;4.50;99.90;;;3.38;100.00;98103.84;4967751;28;20062;-73
2022/11/13 07:53:22;;;;;;;111.03;10.93;;;4.60;99.90;;;3.34;100.00;98099.59;4969871;28;20119;-72
2022/11/13 07:55:49;;;;;;;82.43;9.55;;;4.70;99.90;;;3.45;100.00;98100.38;4968317;28;20057;-73
2022/11/13 07:58:16;;;;;;;33.15;7.45;;;4.70;99.90;;;3.57;100.00;98096.88;4969905;28;20058;-73
2022/11/13 08:00:43;;;;;;;64.07;10.00;;;4.80;99.90;;;3.69;100.00;98101.06;4970027;28;20062;-73
2022/11/13 08:03:15;;;;;;;59.53;8.75;;;5.00;99.90;;;3.69;100.00;98094.22;4966274;28;20215;-73
2022/11/13 08:05:43;;;;;;;43.33;8.43;;;5.00;99.90;;;3.79;100.00;98095.03;4968428;28;20046;-73
2022/11/13 08:08:14;;;;;;;18.00;8.70;;;5.10;99.90;;;3.90;100.00;98085.53;4983222;28;20042;-73
2022/11/13 08:10:41;;;;;;;146.60;13.75;;;5.10;99.90;;;3.79;100.00;98082.19;4967848;28;20063;-73
2022/11/13 08:13:09;;;;;;;68.30;10.50;;;5.20;99.90;;;3.84;100.00;98070.16;4966898;28;20061;-73
2022/11/13 08:15:37;;;;;;;56.58;10.82;;;5.20;99.90;;;3.88;100.00;98068.44;4968606;28;20069;-73
2022/11/13 08:18:05;;;;;;;43.95;8.10;;;5.30;99.90;;;4.00;100.00;98076.03;4968349;28;20473;-71
2022/11/13 08:20:33;;;;;;;199.68;15.63;;;5.30;99.90;;;4.02;100.00;98071.72;4982967;28;20062;-72
2022/11/13 08:23:02;;;;;;;12.15;8.82;;;5.30;99.90;;;4.08;100.00;98066.53;4965471;28;20051;-73
2022/11/13 08:25:31;;;;;;;12.73;9.70;;;5.30;99.90;;;4.18;100.00;98054.47;4968060;28;20058;-73
2022/11/13 08:27:58;;;;;;;13.60;9.63;;;5.30;99.90;;;4.20;100.00;98060.44;4969376;28;20051;-73
2022/11/13 08:30:27;;;;;;;13.80;9.52;;;5.30;99.90;;;4.25;100.00;98063.81;4969969;28;20050;-73
2022/11/13 08:32:54;;;;;;;11.43;9.60;;;5.20;99.90;;;4.19;100.00;98056.16;4982058;28;20144;-73
2022/11/13 08:35:21;;;;;;;17.42;12.93;;;5.20;99.90;;;4.15;100.00;98049.34;4968285;28;20057;-73
2022/11/13 08:38:04;;;;;;;14.27;11.15;;;5.20;99.90;;;4.18;100.00;98050.16;4967084;28;20133;-73
2022/11/13 08:40:31;;;;;;;20.90;14.40;;;5.20;99.90;;;4.18;100.00;98052.75;4981650;28;20473;-73
2022/11/13 08:43:03;;;;;;;17.70;14.10;;;5.20;99.90;;;4.25;100.00;98045.81;4966831;28;20058;-74
2022/11/13 08:45:30;;;;;;;15.32;12.02;;;5.20;99.90;;;4.32;100.00;98044.88;4966360;28;20062;-74
2022/11/13 08:48:02;;;;;;;19.15;14.63;;;5.30;99.90;;;4.33;100.00;98040.59;4969480;28;20054;-73
2022/11/13 08:50:31;;;;;;;20.60;14.38;;;5.20;99.90;;;4.41;100.00;98038.81;4969914;28;20051;-73
2022/11/13 08:53:00;;;;;;;22.35;16.23;;;5.30;99.90;;;4.43;100.00;98038.81;4982110;28;20458;-74
2022/11/13 08:55:27;;;;;;;18.80;14.50;;;5.30;99.90;;;4.42;100.00;98037.09;4967889;28;20066;-72
2022/11/13 08:57:59;;;;;;;21.23;15.00;;;5.30;99.90;;;4.42;100.00;98044.78;4967938;28;20146;-73
2022/11/13 09:00:28;;;;;;;21.00;13.90;;;5.30;99.90;;;4.50;100.00;98041.28;4969628;28;20105;-73
2022/11/13 09:02:56;;;;;;;19.73;15.05;;;5.30;99.90;;;4.47;100.00;98038.75;4966544;28;20050;-73
2022/11/13 09:05:25;;;;;;;19.92;15.20;;;5.40;99.90;;;4.51;100.00;98042.97;4967269;28;20062;-73
2022/11/13 09:07:59;;;;;;;23.08;16.58;;;5.40;99.90;;;4.53;100.00;98045.53;4970086;28;20061;-73
2022/11/13 09:10:27;;;;;;;22.52;16.55;;;5.40;99.90;;;4.47;100.00;98038.75;4967469;28;20113;-73
2022/11/13 09:13:03;;;;;;;19.98;15.15;;;5.50;99.90;;;4.56;100.00;98035.22;4979549;28;20143;-73
2022/11/13 09:15:31;;;;;;;22.55;15.40;;;5.40;99.90;;;4.64;100.00;98024.84;4983340;28;20417;-74
2022/11/13 09:18:01;;;;;;;20.50;15.38;;;5.50;99.90;;;4.70;100.00;98032.47;4966340;28;20047;-74
2022/11/13 09:20:30;;;;;;;18.48;14.13;;;5.50;99.90;;;4.76;100.00;98025.53;4973055;28;20501;-73
2022/11/13 09:22:59;;;;;;;20.13;13.80;;;5.60;99.90;;;4.79;100.00;98022.09;4981741;28;20146;-72
2022/11/13 09:25:28;;;;;;;19.05;14.75;;;5.60;99.90;;;4.79;100.00;98020.38;4966477;28;20055;-74
2022/11/13 09:28:04;;;;;;;23.08;15.48;;;5.60;99.90;;;4.85;100.00;98016.88;4983018;28;20457;-72
2022/11/13 09:30:31;;;;;;;18.92;14.57;;;5.70;99.90;;;4.93;100.00;98025.34;4968505;28;20046;-73
2022/11/13 09:33:00;;;;;;;17.50;13.23;;;5.70;99.90;;;5.10;100.00;98019.13;4965035;28;20066;-73
2022/11/13 09:35:33;;;;;;;21.65;14.90;;;5.90;99.90;;;5.17;100.00;98026.72;4965720;28;20046;-73
2022/11/13 09:38:12;;;;;;;18.42;13.45;;;6.00;99.90;;;5.32;100.00;98022.25;4968775;28;20082;-73
2022/11/13 09:40:53;;;;;;;16.50;12.95;;;6.10;99.90;;;5.35;100.00;98022.19;4968027;28;20141;-73
2022/11/13 09:43:29;;;;;;;15.35;12.25;;;6.20;99.90;;;5.46;100.00;98022.91;4966237;28;20050;-73
2022/11/13 09:46:05;;;;;;;16.13;12.50;;;6.30;99.90;;;5.70;100.00;98023.38;4963685;28;20059;-72
2022/11/13 09:48:41;;;;;;;13.98;11.02;;;6.40;99.90;;;5.80;100.00;98028.38;4964015;28;20054;-73
2022/11/13 09:51:17;;;;;;;14.57;11.32;;;6.50;99.90;;;5.79;100.00;98023.22;4967463;28;20539;-74
2022/11/13 09:53:44;;;;;;;16.10;11.82;;;6.50;99.90;;;5.75;100.00;98021.59;4961260;28;20061;-71
2022/11/13 09:56:27;;;;;;;16.25;11.52;;;6.60;99.90;;;5.83;100.00;98017.16;4966334;28;20126;-73
2022/11/13 09:59:15;;;;;;;16.27;11.40;;;6.60;99.90;;;5.86;100.00;98009.38;4980484;28;20055;-72
2022/11/13 10:01:51;;;;;;;13.52;10.73;;;6.70;99.90;;;5.97;100.00;98004.06;4965370;28;20066;-73
2022/11/13 10:04:52;;;;;;;15.68;11.65;;;6.70;99.90;;;6.03;100.00;98011.72;4962828;28;20404;-72
2022/11/13 10:07:50;;;;;;;13.60;10.52;;;6.80;99.90;;;6.10;100.00;98002.97;4959565;28;20082;-73
2022/11/13 10:10:47;;;;;;;14.50;10.73;;;6.90;99.90;;;6.18;100.00;98002.84;4943101;28;20709;-73
2022/11/13 10:13:32;;;;;;;12.93;10.65;;;7.00;99.90;;;6.26;100.00;98001.81;4976257;28;20082;-71
2022/11/13 10:16:34;;;;;;;13.35;10.13;;;7.10;99.90;;;6.34;100.00;98001.69;4964709;28;20062;-73
2022/11/13 10:19:18;;;;;;;14.85;10.25;;;7.20;99.90;;;6.37;100.00;97999.06;4964033;28;20058;-73
2022/11/13 10:21:48;;;;;;;;;;;7.20;99.90;;;6.41;100.00;97999.81;4957322;28;20598;-73